createdAt,value
2019-05-19T00:02:12.295Z,33.30
2019-05-19T00:04:39.662Z,32.70
2019-05-19T00:07:07.005Z,35.53
2019-05-19T00:09:34.273Z,33.30
2019-05-19T00:12:01.577Z,33.83
2019-05-19T00:14:28.840Z,34.17
2019-05-19T00:16:56.113Z,34.50
2019-05-19T00:19:26.751Z,36.00
2019-05-19T00:21:52.488Z,35.07
2019-05-19T00:24:19.793Z,34.87
2019-05-19T00:26:47.101Z,35.30
2019-05-19T00:29:14.456Z,35.20
2019-05-19T00:31:41.871Z,36.10
2019-05-19T00:34:09.333Z,37.80
2019-05-19T00:36:36.769Z,34.60
2019-05-19T00:39:04.714Z,36.60
2019-05-19T00:41:32.002Z,35.87
2019-05-19T00:43:59.336Z,34.20
2019-05-19T00:46:26.632Z,34.47
2019-05-19T00:48:53.912Z,33.80
2019-05-19T00:51:23.208Z,33.17
2019-05-19T00:53:50.532Z,35.90
2019-05-19T00:56:17.976Z,35.60
2019-05-19T00:58:45.617Z,33.87
2019-05-19T01:01:12.989Z,36.50
2019-05-19T01:03:40.273Z,32.10
2019-05-19T01:06:07.541Z,34.30
2019-05-19T01:08:34.925Z,37.23
2019-05-19T01:11:02.228Z,34.90
2019-05-19T01:13:29.557Z,34.20
2019-05-19T01:15:56.840Z,33.90
2019-05-19T01:18:24.122Z,32.70
2019-05-19T01:20:51.473Z,32.70
2019-05-19T01:23:18.769Z,34.20
2019-05-19T01:25:46.042Z,36.93
2019-05-19T01:28:13.317Z,35.60
2019-05-19T01:30:40.614Z,35.33
2019-05-19T01:33:07.887Z,34.43
2019-05-19T01:35:35.168Z,34.80
2019-05-19T01:38:02.473Z,36.57
2019-05-19T01:40:29.743Z,36.53
2019-05-19T01:42:57.012Z,36.67
2019-05-19T01:45:24.981Z,33.97
2019-05-19T01:47:52.257Z,35.43
2019-05-19T01:50:19.534Z,35.70
2019-05-19T01:52:46.854Z,36.17
2019-05-19T01:55:14.294Z,36.57
2019-05-19T01:57:41.565Z,34.80
2019-05-19T02:00:09.316Z,35.63
2019-05-19T02:02:36.585Z,38.13
2019-05-19T02:05:05.405Z,35.20
2019-05-19T02:07:32.738Z,32.90
2019-05-19T02:10:00.048Z,35.00
2019-05-19T02:12:27.408Z,35.10
2019-05-19T02:14:54.709Z,36.83
2019-05-19T02:17:22.049Z,37.37
2019-05-19T02:19:49.325Z,36.47
2019-05-19T02:22:16.609Z,37.77
2019-05-19T02:24:43.895Z,36.23
2019-05-19T02:27:11.330Z,36.67
2019-05-19T02:29:38.599Z,36.77
2019-05-19T02:32:05.877Z,36.87
2019-05-19T02:34:33.203Z,37.03
2019-05-19T02:37:00.544Z,36.20
2019-05-19T02:39:27.826Z,36.80
2019-05-19T02:41:56.457Z,35.93
2019-05-19T02:44:24.701Z,35.97
2019-05-19T02:46:53.226Z,38.17
2019-05-19T02:49:20.767Z,38.00
2019-05-19T02:51:49.814Z,37.70
2019-05-19T02:54:17.566Z,37.37
2019-05-19T02:56:45.525Z,38.00
2019-05-19T02:59:13.397Z,37.13
2019-05-19T03:01:59.122Z,40.90
2019-05-19T03:04:26.398Z,37.10
2019-05-19T03:06:53.745Z,37.03
2019-05-19T03:09:21.045Z,38.53
2019-05-19T03:11:48.318Z,37.30
2019-05-19T03:14:15.645Z,37.00
2019-05-19T03:16:42.982Z,36.60
2019-05-19T03:19:10.313Z,38.07
2019-05-19T03:21:37.576Z,35.13
2019-05-19T03:24:04.944Z,35.27
2019-05-19T03:26:32.230Z,37.33
2019-05-19T03:28:59.578Z,36.40
2019-05-19T03:31:28.535Z,38.00
2019-05-19T03:33:57.456Z,37.57
2019-05-19T03:36:24.793Z,36.70
2019-05-19T03:38:52.080Z,39.20
2019-05-19T03:41:19.374Z,37.80
2019-05-19T03:43:46.661Z,37.80
2019-05-19T03:46:14.079Z,38.03
2019-05-19T03:48:41.390Z,36.23
2019-05-19T03:51:08.665Z,39.10
2019-05-19T03:53:35.939Z,34.73
2019-05-19T03:56:03.285Z,38.80
2019-05-19T03:58:30.619Z,38.90
2019-05-19T04:00:57.963Z,38.70
2019-05-19T04:03:25.304Z,40.97
2019-05-19T04:05:52.582Z,39.00
2019-05-19T04:08:19.982Z,37.97
2019-05-19T04:10:47.253Z,38.33
2019-05-19T04:13:14.607Z,39.47
2019-05-19T04:15:41.926Z,37.47
2019-05-19T04:18:09.205Z,38.27
2019-05-19T04:20:36.551Z,39.37
2019-05-19T04:23:03.857Z,38.50
2019-05-19T04:25:31.270Z,37.23
2019-05-19T04:27:58.555Z,41.43
2019-05-19T04:30:25.836Z,36.80
2019-05-19T04:32:53.128Z,38.30
2019-05-19T04:35:20.555Z,37.53
2019-05-19T04:37:47.859Z,36.10
2019-05-19T04:40:15.140Z,36.17
2019-05-19T04:42:42.516Z,34.77
2019-05-19T04:45:09.927Z,33.53
2019-05-19T04:47:37.272Z,36.30
2019-05-19T04:50:07.368Z,34.60
2019-05-19T04:52:34.638Z,38.50
2019-05-19T04:55:01.931Z,38.60
2019-05-19T04:57:29.978Z,37.90
2019-05-19T04:59:57.249Z,39.13
2019-05-19T05:02:24.525Z,38.70
2019-05-19T05:04:51.813Z,37.57
2019-05-19T05:07:19.111Z,37.37
2019-05-19T05:09:46.408Z,37.83
2019-05-19T05:12:13.689Z,36.30
2019-05-19T05:14:40.967Z,37.10
2019-05-19T05:17:08.342Z,38.37
2019-05-19T05:19:35.622Z,36.40
2019-05-19T05:22:02.889Z,36.30
2019-05-19T05:24:30.189Z,36.20
2019-05-19T05:26:57.457Z,35.27
2019-05-19T05:29:24.751Z,37.10
2019-05-19T05:31:52.117Z,37.33
2019-05-19T05:34:19.388Z,37.43
2019-05-19T05:36:46.729Z,37.93
2019-05-19T05:39:14.031Z,36.03
2019-05-19T05:41:41.301Z,37.23
2019-05-19T05:44:08.589Z,37.03
2019-05-19T05:46:35.936Z,37.27
2019-05-19T05:49:03.239Z,36.07
2019-05-19T05:51:30.569Z,40.00
2019-05-19T05:53:57.885Z,35.27
2019-05-19T05:56:25.169Z,34.70
2019-05-19T05:58:52.440Z,34.10
2019-05-19T06:01:19.834Z,35.67
2019-05-19T06:03:47.109Z,33.17
2019-05-19T06:06:14.386Z,34.40
2019-05-19T06:08:41.705Z,32.63
2019-05-19T06:11:08.982Z,34.77
2019-05-19T06:13:36.321Z,33.37
2019-05-19T06:16:03.628Z,31.07
2019-05-19T06:18:30.961Z,33.80
2019-05-19T06:20:58.232Z,33.50
2019-05-19T06:23:25.533Z,31.70
2019-05-19T06:25:52.808Z,33.17
2019-05-19T06:28:20.085Z,32.27
2019-05-19T06:30:47.431Z,32.87
2019-05-19T06:33:14.715Z,34.67
2019-05-19T06:35:41.997Z,34.10
2019-05-19T06:38:09.278Z,32.17
2019-05-19T06:40:36.578Z,34.30
2019-05-19T06:43:03.901Z,32.40
2019-05-19T06:45:31.275Z,32.30
2019-05-19T06:47:58.636Z,30.53
2019-05-19T06:50:25.920Z,33.60
2019-05-19T06:52:53.235Z,34.70
2019-05-19T06:55:20.505Z,32.90
2019-05-19T06:57:47.814Z,33.03
2019-05-19T07:00:15.261Z,35.90
2019-05-19T07:02:42.540Z,33.47
2019-05-19T07:05:09.985Z,35.97
2019-05-19T07:07:37.301Z,33.57
2019-05-19T07:10:05.867Z,35.13
2019-05-19T07:12:33.208Z,32.43
2019-05-19T07:15:00.584Z,34.07
2019-05-19T07:17:27.987Z,34.53
2019-05-19T07:19:55.344Z,37.93
2019-05-19T07:22:22.648Z,35.40
2019-05-19T07:24:49.926Z,34.80
2019-05-19T07:27:17.221Z,33.40
2019-05-19T07:29:44.512Z,34.33
2019-05-19T07:32:11.818Z,31.03
2019-05-19T07:34:39.180Z,33.60
2019-05-19T07:37:06.484Z,30.13
2019-05-19T07:39:33.754Z,29.30
2019-05-19T07:42:01.105Z,30.63
2019-05-19T07:44:28.415Z,30.63
2019-05-19T07:46:55.770Z,29.07
2019-05-19T07:49:23.046Z,28.03
2019-05-19T07:51:51.525Z,25.90
2019-05-19T07:54:18.809Z,27.53
2019-05-19T07:56:46.079Z,27.37
2019-05-19T07:59:13.388Z,26.17
2019-05-19T08:01:40.669Z,30.07
2019-05-19T08:04:07.954Z,29.20
2019-05-19T08:06:35.262Z,30.40
2019-05-19T08:09:02.541Z,28.07
2019-05-19T08:11:29.946Z,29.33
2019-05-19T08:13:57.400Z,29.67
2019-05-19T08:16:24.768Z,28.57
2019-05-19T08:18:53.453Z,26.07
2019-05-19T08:21:20.787Z,27.33
2019-05-19T08:23:59.793Z,30.00
2019-05-19T08:26:17.075Z,28.77
2019-05-19T08:28:44.389Z,28.17
2019-05-19T08:31:11.688Z,30.13
2019-05-19T08:33:39.105Z,29.77
2019-05-19T08:36:06.445Z,28.60
2019-05-19T08:38:33.790Z,32.00
2019-05-19T08:41:01.242Z,27.60
2019-05-19T08:43:28.653Z,29.43
2019-05-19T08:45:55.932Z,30.63
2019-05-19T08:48:23.305Z,30.00
2019-05-19T08:50:50.635Z,29.37
2019-05-19T08:53:17.976Z,30.67
2019-05-19T08:55:45.246Z,30.00
2019-05-19T08:58:12.549Z,32.00
2019-05-19T09:00:39.846Z,27.87
2019-05-19T09:03:07.122Z,29.60
2019-05-19T09:05:34.437Z,28.30
2019-05-19T09:08:01.717Z,31.33
2019-05-19T09:10:28.994Z,29.17
2019-05-19T09:12:56.316Z,28.10
2019-05-19T09:15:23.614Z,25.83
2019-05-19T09:17:53.780Z,28.90
2019-05-19T09:20:19.961Z,26.90
2019-05-19T09:22:49.032Z,27.50
2019-05-19T09:25:17.252Z,23.90
2019-05-19T09:27:44.536Z,25.30
2019-05-19T09:30:12.080Z,22.87
2019-05-19T09:32:39.388Z,21.47
2019-05-19T09:35:06.740Z,20.03
2019-05-19T09:37:34.021Z,23.47
2019-05-19T09:40:01.536Z,21.97
2019-05-19T09:42:28.886Z,21.20
2019-05-19T09:44:56.162Z,20.53
2019-05-19T09:47:23.478Z,20.67
2019-05-19T09:49:50.754Z,22.50
2019-05-19T09:52:18.124Z,20.70
2019-05-19T09:54:46.018Z,20.83
2019-05-19T09:57:13.493Z,18.80
2019-05-19T09:59:40.766Z,17.60
2019-05-19T10:02:08.230Z,15.07
2019-05-19T10:04:35.566Z,16.17
2019-05-19T10:07:03.620Z,15.10
2019-05-19T10:09:49.399Z,16.80
2019-05-19T10:12:16.673Z,17.20
2019-05-19T10:14:44.016Z,16.60
2019-05-19T10:17:11.332Z,18.53
2019-05-19T10:19:38.611Z,17.80
2019-05-19T10:22:05.948Z,18.00
2019-05-19T10:24:33.340Z,17.90
2019-05-19T10:27:00.738Z,18.37
2019-05-19T10:29:28.167Z,18.47
2019-05-19T10:31:55.584Z,17.33
2019-05-19T10:34:22.947Z,17.80
2019-05-19T10:36:50.317Z,17.00
2019-05-19T10:39:17.785Z,18.43
2019-05-19T10:41:45.068Z,17.63
2019-05-19T10:44:12.369Z,17.77
2019-05-19T10:46:39.712Z,18.27
2019-05-19T10:49:07.013Z,17.20
2019-05-19T10:51:34.361Z,17.73
2019-05-19T10:54:01.653Z,16.90
2019-05-19T10:56:28.961Z,18.07
2019-05-19T10:58:56.237Z,17.83
2019-05-19T11:01:23.612Z,17.63
2019-05-19T11:03:50.940Z,18.63
2019-05-19T11:06:18.421Z,18.10
2019-05-19T11:08:45.781Z,18.40
2019-05-19T11:11:13.076Z,16.63
2019-05-19T11:13:40.365Z,16.93
2019-05-19T11:16:07.644Z,16.30
2019-05-19T11:18:34.961Z,16.73
2019-05-19T11:21:02.271Z,16.80
2019-05-19T11:23:29.617Z,17.70
2019-05-19T11:25:56.985Z,17.80
2019-05-19T11:28:24.338Z,18.07
2019-05-19T11:30:51.671Z,17.40
2019-05-19T11:33:18.977Z,16.60
2019-05-19T11:35:46.261Z,17.30
2019-05-19T11:38:13.532Z,16.20
2019-05-19T11:40:40.853Z,16.40
2019-05-19T11:43:08.148Z,16.63
2019-05-19T11:45:35.434Z,16.17
2019-05-19T11:48:02.709Z,16.53
2019-05-19T11:50:29.993Z,15.60
2019-05-19T11:52:57.292Z,15.83
2019-05-19T11:55:24.634Z,16.23
2019-05-19T11:57:51.920Z,16.10
2019-05-19T12:00:19.293Z,16.10
2019-05-19T12:02:46.673Z,15.83
2019-05-19T12:05:14.121Z,16.43
2019-05-19T12:07:41.416Z,15.63
2019-05-19T12:10:09.466Z,15.23
2019-05-19T12:12:36.797Z,14.37
2019-05-19T12:15:09.360Z,15.93
2019-05-19T12:17:36.637Z,15.77
2019-05-19T12:20:05.277Z,15.10
2019-05-19T12:22:32.572Z,16.27
2019-05-19T12:24:59.850Z,16.30
2019-05-19T12:27:27.124Z,16.37
2019-05-19T12:29:54.440Z,15.93
2019-05-19T12:32:21.709Z,17.27
2019-05-19T12:34:48.989Z,16.20
2019-05-19T12:37:16.317Z,16.40
2019-05-19T12:39:43.656Z,16.17
2019-05-19T12:42:10.941Z,15.67
2019-05-19T12:44:38.343Z,16.50
2019-05-19T12:47:05.709Z,16.20
2019-05-19T12:49:32.997Z,16.20
2019-05-19T12:52:00.323Z,17.97
2019-05-19T12:54:27.696Z,18.53
2019-05-19T12:56:54.974Z,18.57
2019-05-19T12:59:22.291Z,19.20
2019-05-19T13:01:49.633Z,21.30
2019-05-19T13:04:16.913Z,20.17
2019-05-19T13:06:44.218Z,20.93
2019-05-19T13:09:11.972Z,21.87
2019-05-19T13:11:39.252Z,20.80
2019-05-19T13:14:06.557Z,22.20
2019-05-19T13:16:33.829Z,21.33
2019-05-19T13:19:01.121Z,22.23
2019-05-19T13:21:28.593Z,22.60
2019-05-19T13:23:55.992Z,19.73
2019-05-19T13:26:23.329Z,19.23
2019-05-19T13:28:50.629Z,17.20
2019-05-19T13:31:17.892Z,17.67
2019-05-19T13:33:45.222Z,15.60
2019-05-19T13:36:12.589Z,14.40
2019-05-19T13:38:39.932Z,14.37
2019-05-19T13:41:07.209Z,14.07
2019-05-19T13:43:34.554Z,14.37
2019-05-19T13:46:01.825Z,15.17
2019-05-19T13:48:29.106Z,15.70
2019-05-19T13:50:56.414Z,16.13
2019-05-19T13:53:23.684Z,15.67
2019-05-19T13:55:50.968Z,13.97
2019-05-19T13:58:18.304Z,12.50
2019-05-19T14:00:45.638Z,13.60
2019-05-19T14:03:12.984Z,12.60
2019-05-19T14:05:40.281Z,12.77
2019-05-19T14:08:07.559Z,12.80
2019-05-19T14:10:34.834Z,13.60
2019-05-19T14:13:02.125Z,11.73
2019-05-19T14:15:29.400Z,12.60
2019-05-19T14:17:56.704Z,13.23
2019-05-19T14:20:23.973Z,12.80
2019-05-19T14:22:51.248Z,14.20
2019-05-19T14:25:18.561Z,12.73
2019-05-19T14:27:45.837Z,13.67
2019-05-19T14:30:13.477Z,12.90
2019-05-19T14:32:40.823Z,13.23
2019-05-19T14:35:08.225Z,11.40
2019-05-19T14:37:35.525Z,12.20
2019-05-19T14:40:03.126Z,12.47
2019-05-19T14:42:43.978Z,11.67
2019-05-19T14:45:11.609Z,10.93
2019-05-19T14:47:38.913Z,11.50
2019-05-19T14:50:07.065Z,11.30
2019-05-19T14:52:34.413Z,10.80
2019-05-19T14:55:01.715Z,11.33
2019-05-19T14:57:42.414Z,11.63
2019-05-19T14:59:58.064Z,11.83
2019-05-19T15:02:25.367Z,11.83
2019-05-19T15:04:52.795Z,11.30
2019-05-19T15:07:20.086Z,11.67
2019-05-19T15:09:47.409Z,13.30
2019-05-19T15:12:14.689Z,13.03
2019-05-19T15:14:41.966Z,12.17
2019-05-19T15:17:09.258Z,13.00
2019-05-19T15:19:36.548Z,13.07
2019-05-19T15:22:04.001Z,12.57
2019-05-19T15:24:31.272Z,12.80
2019-05-19T15:26:58.549Z,13.67
2019-05-19T15:29:25.845Z,12.17
2019-05-19T15:31:53.121Z,13.13
2019-05-19T15:34:20.397Z,13.60
2019-05-19T15:36:47.708Z,13.20
2019-05-19T15:39:14.985Z,12.83
2019-05-19T15:41:42.283Z,12.77
2019-05-19T15:44:09.585Z,12.60
2019-05-19T15:46:36.942Z,12.50
2019-05-19T15:49:04.241Z,12.30
2019-05-19T15:51:37.370Z,12.13
2019-05-19T15:54:00.548Z,12.40
2019-05-19T15:56:27.821Z,12.97
2019-05-19T15:58:55.188Z,11.50
2019-05-19T16:01:22.464Z,12.73
2019-05-19T16:03:49.773Z,11.70
2019-05-19T16:06:17.072Z,12.50
2019-05-19T16:08:44.421Z,13.40
2019-05-19T16:11:11.698Z,13.47
2019-05-19T16:13:39.020Z,14.80
2019-05-19T16:16:06.373Z,14.37
2019-05-19T16:18:33.801Z,15.37
2019-05-19T16:21:01.121Z,15.10
2019-05-19T16:23:28.408Z,14.07
2019-05-19T16:25:55.768Z,14.60
2019-05-19T16:28:30.198Z,15.00
2019-05-19T16:30:52.076Z,13.70
2019-05-19T16:33:19.382Z,12.67
2019-05-19T16:35:46.708Z,15.07
2019-05-19T16:38:14.085Z,13.03
2019-05-19T16:40:41.440Z,13.97
2019-05-19T16:43:08.725Z,14.73
2019-05-19T16:45:36.037Z,14.40
2019-05-19T16:48:03.425Z,13.30
2019-05-19T16:50:30.713Z,14.37
2019-05-19T16:52:58.062Z,15.47
2019-05-19T16:55:27.133Z,14.33
2019-05-19T16:57:54.417Z,13.63
2019-05-19T17:00:21.856Z,14.90
2019-05-19T17:02:49.257Z,13.60
2019-05-19T17:05:16.599Z,13.07
2019-05-19T17:07:44.764Z,13.67
2019-05-19T17:10:12.118Z,13.83
2019-05-19T17:12:39.470Z,13.23
2019-05-19T17:15:07.194Z,12.40
2019-05-19T17:17:34.607Z,13.80
2019-05-19T17:20:01.985Z,14.07
2019-05-19T17:22:29.357Z,13.80
2019-05-19T17:24:56.682Z,14.23
2019-05-19T17:27:24.000Z,13.70
2019-05-19T17:29:51.376Z,13.10
2019-05-19T17:32:18.653Z,13.77
2019-05-19T17:34:46.010Z,13.07
2019-05-19T17:37:13.320Z,12.80
2019-05-19T17:39:40.596Z,13.23
2019-05-19T17:42:08.013Z,12.40
2019-05-19T17:44:35.324Z,12.90
2019-05-19T17:47:02.635Z,12.10
2019-05-19T17:49:29.945Z,12.70
2019-05-19T17:51:57.246Z,11.77
2019-05-19T17:54:24.553Z,12.13
2019-05-19T17:56:52.613Z,11.47
2019-05-19T17:59:20.353Z,12.20
2019-05-19T18:01:47.636Z,13.30
2019-05-19T18:04:14.992Z,14.10
2019-05-19T18:06:42.277Z,12.10
2019-05-19T18:09:09.575Z,12.03
2019-05-19T18:11:36.880Z,13.63
2019-05-19T18:14:04.161Z,12.80
2019-05-19T18:16:31.445Z,14.10
2019-05-19T18:18:58.766Z,12.30
2019-05-19T18:21:26.052Z,13.93
2019-05-19T18:23:53.350Z,11.83
2019-05-19T18:26:20.697Z,13.00
2019-05-19T18:28:48.048Z,11.90
2019-05-19T18:31:15.335Z,12.67
2019-05-19T18:33:42.675Z,13.00
2019-05-19T18:36:09.998Z,13.77
2019-05-19T18:38:37.268Z,13.70
2019-05-19T18:41:04.553Z,14.97
2019-05-19T18:43:31.873Z,14.93
2019-05-19T18:45:59.284Z,14.50
2019-05-19T18:48:26.603Z,13.60
2019-05-19T18:50:53.953Z,12.33
2019-05-19T18:53:21.318Z,12.03
2019-05-19T18:55:48.696Z,15.20
2019-05-19T18:58:15.969Z,11.77
2019-05-19T19:00:43.244Z,13.07
2019-05-19T19:03:10.701Z,13.30
2019-05-19T19:05:37.979Z,12.17
2019-05-19T19:08:05.265Z,11.23
2019-05-19T19:10:32.703Z,10.40
2019-05-19T19:12:59.973Z,9.83
2019-05-19T19:15:27.318Z,10.60
2019-05-19T19:17:54.853Z,7.70
2019-05-19T19:20:22.189Z,9.00
2019-05-19T19:22:49.480Z,8.67
2019-05-19T19:25:16.785Z,9.27
2019-05-19T19:27:44.129Z,9.47
2019-05-19T19:30:11.476Z,9.83
2019-05-19T19:32:38.789Z,8.90
2019-05-19T19:35:06.439Z,10.10
2019-05-19T19:37:33.773Z,9.60
2019-05-19T19:40:01.159Z,11.03
2019-05-19T19:42:28.494Z,10.67
2019-05-19T19:44:55.943Z,11.70
2019-05-19T19:47:23.498Z,11.90
2019-05-19T19:49:50.846Z,12.10
2019-05-19T19:52:18.123Z,10.97
2019-05-19T19:54:45.457Z,11.63
2019-05-19T19:57:12.870Z,11.50
2019-05-19T19:59:40.140Z,12.50
2019-05-19T20:02:07.526Z,13.17
2019-05-19T20:04:34.825Z,11.73
2019-05-19T20:07:02.117Z,13.40
2019-05-19T20:09:29.526Z,12.80
2019-05-19T20:11:56.800Z,11.97
2019-05-19T20:14:24.073Z,12.50
2019-05-19T20:16:51.402Z,13.10
2019-05-19T20:19:18.736Z,14.00
2019-05-19T20:21:46.013Z,13.30
2019-05-19T20:24:13.579Z,13.90
2019-05-19T20:26:40.865Z,14.13
2019-05-19T20:29:08.129Z,14.33
2019-05-19T20:31:35.526Z,14.30
2019-05-19T20:34:02.819Z,13.30
2019-05-19T20:36:30.196Z,13.40
2019-05-19T20:38:57.571Z,13.07
2019-05-19T20:41:25.033Z,14.63
2019-05-19T20:43:52.398Z,12.13
2019-05-19T20:46:19.760Z,13.60
2019-05-19T20:48:47.047Z,14.77
2019-05-19T20:51:14.326Z,13.67
2019-05-19T20:53:41.692Z,14.40
2019-05-19T20:56:08.986Z,15.23
2019-05-19T20:58:36.329Z,19.17
2019-05-19T21:01:03.629Z,19.57
2019-05-19T21:03:30.911Z,19.73
2019-05-19T21:05:58.261Z,18.60
2019-05-19T21:08:25.581Z,20.00
2019-05-19T21:10:52.865Z,19.53
2019-05-19T21:13:20.139Z,19.97
2019-05-19T21:15:47.606Z,20.20
2019-05-19T21:18:14.878Z,20.20
2019-05-19T21:20:42.233Z,18.60
2019-05-19T21:23:09.722Z,19.17
2019-05-19T21:25:37.028Z,20.90
2019-05-19T21:28:04.303Z,22.27
2019-05-19T21:30:31.608Z,22.03
2019-05-19T21:32:58.880Z,20.50
2019-05-19T21:35:26.174Z,19.73
2019-05-19T21:37:53.472Z,20.73
2019-05-19T21:40:20.800Z,22.63
2019-05-19T21:42:48.147Z,20.13
2019-05-19T21:45:15.640Z,21.70
2019-05-19T21:47:42.990Z,22.23
2019-05-19T21:50:11.537Z,23.27
2019-05-19T21:52:38.853Z,22.30
2019-05-19T21:55:07.305Z,22.43
2019-05-19T21:57:34.576Z,22.00
2019-05-19T22:00:01.901Z,21.97
2019-05-19T22:02:29.245Z,20.10
2019-05-19T22:04:56.521Z,19.47
2019-05-19T22:07:28.336Z,20.17
2019-05-19T22:09:55.613Z,21.10
2019-05-19T22:12:22.906Z,21.03
2019-05-19T22:14:50.234Z,23.27
2019-05-19T22:17:17.587Z,24.00
2019-05-19T22:19:44.868Z,23.33
2019-05-19T22:22:12.167Z,21.47
2019-05-19T22:24:39.448Z,22.53
2019-05-19T22:27:06.733Z,21.30
2019-05-19T22:29:34.035Z,23.03
2019-05-19T22:32:01.372Z,21.07
2019-05-19T22:34:28.647Z,22.00
2019-05-19T22:36:56.025Z,22.20
2019-05-19T22:39:23.301Z,22.30
2019-05-19T22:41:50.573Z,23.30
2019-05-19T22:44:20.248Z,19.90
2019-05-19T22:46:46.878Z,22.73
2019-05-19T22:49:14.160Z,21.90
2019-05-19T22:51:41.544Z,21.00
2019-05-19T22:54:08.826Z,25.47
2019-05-19T22:56:36.093Z,22.67
2019-05-19T22:59:03.394Z,22.87
2019-05-19T23:01:30.664Z,22.10
2019-05-19T23:03:57.949Z,22.70
2019-05-19T23:06:25.255Z,25.17
2019-05-19T23:08:52.596Z,22.60
2019-05-19T23:11:19.868Z,22.30
2019-05-19T23:13:47.189Z,24.10
2019-05-19T23:16:14.529Z,22.50
2019-05-19T23:18:41.854Z,24.27
2019-05-19T23:21:09.177Z,24.23
2019-05-19T23:23:36.728Z,25.17
2019-05-19T23:26:04.080Z,22.60
2019-05-19T23:28:31.402Z,25.40
2019-05-19T23:30:58.682Z,24.37
2019-05-19T23:33:25.966Z,20.77
2019-05-19T23:35:53.273Z,20.57
2019-05-19T23:38:20.556Z,24.00
2019-05-19T23:40:47.840Z,21.50
2019-05-19T23:43:15.174Z,18.60
2019-05-19T23:45:42.460Z,18.37
2019-05-19T23:48:09.748Z,20.50
2019-05-19T23:50:37.045Z,21.67
2019-05-19T23:53:04.318Z,23.50
2019-05-19T23:55:31.597Z,21.90
2019-05-19T23:57:58.914Z,19.10
